LNI615 CYQX-BGSF
Flight info
| Callsign | LNI615 |
|---|---|
| Flight time | 2h 38m |
| Altitude | 31000 |
| Route | RADUN/M078F310 DCT LUXOV DCT SF |
| Aircraft | B739/M-SDE2E3FGHIRWXY/LB1 |
Departure
| Time | 2026-05-05 10:33 |
|---|---|
| Airport | Gander International Airport (CYQX) |
Arrival
| Time | 2026-05-05 13:12 |
|---|---|
| Airport | Kangerlussuaq International Airport (BGSF) |
| Time | Latitude | Longitude | Altitude | Speed | Heading |
|---|---|---|---|---|---|
| 2026-05-05 10:26 | 48.94739 | -54.57182 | 464 ft | 1 kts | 108° |
| 2026-05-05 10:28 | 48.94736 | -54.57168 | 464 ft | 3 kts | 108° |
| 2026-05-05 10:28 | 48.94724 | -54.57114 | 466 ft | 8 kts | 108° |
| 2026-05-05 10:28 | 48.94705 | -54.57011 | 465 ft | 12 kts | 94° |
| 2026-05-05 10:28 | 48.94705 | -54.57002 | 465 ft | 0 kts | 79° |
| 2026-05-05 10:29 | 48.94715 | -54.56996 | 465 ft | 2 kts | 16° |
| 2026-05-05 10:29 | 48.94732 | -54.56990 | 464 ft | 2 kts | 15° |
| 2026-05-05 10:29 | 48.94748 | -54.56983 | 465 ft | 2 kts | 15° |
| 2026-05-05 10:29 | 48.94765 | -54.56976 | 465 ft | 3 kts | 15° |
| 2026-05-05 10:30 | 48.94808 | -54.56957 | 465 ft | 10 kts | 17° |
| 2026-05-05 10:30 | 48.94885 | -54.56920 | 466 ft | 12 kts | 18° |
| 2026-05-05 10:30 | 48.94948 | -54.56850 | 466 ft | 12 kts | 79° |
| 2026-05-05 10:30 | 48.94924 | -54.56707 | 461 ft | 16 kts | 108° |
| 2026-05-05 10:31 | 48.94888 | -54.56543 | 458 ft | 16 kts | 107° |
| 2026-05-05 10:31 | 48.94851 | -54.56365 | 456 ft | 19 kts | 108° |
| 2026-05-05 10:31 | 48.94810 | -54.56173 | 455 ft | 19 kts | 108° |
| 2026-05-05 10:31 | 48.94799 | -54.56020 | 456 ft | 2 kts | 116° |
| 2026-05-05 10:32 | 48.94783 | -54.56008 | 455 ft | 3 kts | 169° |
| 2026-05-05 10:32 | 48.94743 | -54.56014 | 456 ft | 8 kts | 190° |
| 2026-05-05 10:32 | 48.94604 | -54.56055 | 460 ft | 48 kts | 191° |
| 2026-05-05 10:32 | 48.94061 | -54.56209 | 459 ft | 111 kts | 190° |
| 2026-05-05 10:33 | 48.93126 | -54.56484 | 487 ft | 157 kts | 195° |
| 2026-05-05 10:33 | 48.92012 | -54.56803 | 946 ft | 168 kts | 195° |
| 2026-05-05 10:33 | 48.90932 | -54.57394 | 1728 ft | 156 kts | 225° |
| 2026-05-05 10:33 | 48.90445 | -54.58763 | 2578 ft | 152 kts | 258° |
| 2026-05-05 10:34 | 48.90395 | -54.60410 | 2932 ft | 168 kts | 274° |
| 2026-05-05 10:34 | 48.90998 | -54.62116 | 3060 ft | 203 kts | 304° |
| 2026-05-05 10:34 | 48.92271 | -54.63437 | 3124 ft | 244 kts | 323° |
| 2026-05-05 10:34 | 48.94035 | -54.64369 | 2956 ft | 292 kts | 335° |
| 2026-05-05 10:35 | 48.96111 | -54.64908 | 3563 ft | 305 kts | 344° |
| 2026-05-05 10:35 | 48.98145 | -54.64975 | 5206 ft | 277 kts | 351° |
| 2026-05-05 10:35 | 48.99992 | -54.64656 | 6629 ft | 263 kts | 355° |
| 2026-05-05 10:35 | 49.01835 | -54.64601 | 6938 ft | 267 kts | 341° |
| 2026-05-05 10:36 | 49.03666 | -54.65069 | 7520 ft | 268 kts | 337° |
| 2026-05-05 10:36 | 49.05496 | -54.65639 | 8153 ft | 268 kts | 337° |
| 2026-05-05 10:36 | 49.07340 | -54.66209 | 8650 ft | 273 kts | 338° |
| 2026-05-05 10:36 | 49.09212 | -54.66762 | 9165 ft | 275 kts | 338° |
| 2026-05-05 10:37 | 49.11104 | -54.67293 | 9677 ft | 278 kts | 339° |
| 2026-05-05 10:37 | 49.13017 | -54.67806 | 10145 ft | 280 kts | 339° |
| 2026-05-05 10:37 | 49.14961 | -54.68320 | 10273 ft | 295 kts | 340° |
| 2026-05-05 10:37 | 49.17037 | -54.68858 | 10404 ft | 309 kts | 340° |
| 2026-05-05 10:38 | 49.19205 | -54.69406 | 10513 ft | 322 kts | 341° |
| 2026-05-05 10:38 | 49.21461 | -54.69963 | 10617 ft | 335 kts | 341° |
| 2026-05-05 10:38 | 49.23802 | -54.70531 | 10707 ft | 346 kts | 342° |
| 2026-05-05 10:38 | 49.26218 | -54.71110 | 10782 ft | 356 kts | 342° |
| 2026-05-05 10:39 | 49.28691 | -54.71696 | 10936 ft | 363 kts | 342° |
| 2026-05-05 10:39 | 49.31199 | -54.72284 | 11531 ft | 365 kts | 342° |
| 2026-05-05 10:39 | 49.33714 | -54.72871 | 12162 ft | 367 kts | 343° |
| 2026-05-05 10:39 | 49.36255 | -54.73468 | 12728 ft | 371 kts | 343° |
| 2026-05-05 10:40 | 49.38813 | -54.74071 | 13322 ft | 374 kts | 343° |
| 2026-05-05 10:40 | 49.41395 | -54.74681 | 13840 ft | 376 kts | 343° |
| 2026-05-05 10:40 | 49.43996 | -54.75298 | 14330 ft | 380 kts | 343° |
| 2026-05-05 10:40 | 49.46589 | -54.75914 | 14823 ft | 383 kts | 343° |
| 2026-05-05 10:41 | 49.49234 | -54.76544 | 15307 ft | 386 kts | 344° |
| 2026-05-05 10:41 | 49.51902 | -54.77179 | 15775 ft | 390 kts | 344° |
| 2026-05-05 10:41 | 49.54599 | -54.77824 | 16224 ft | 394 kts | 344° |
| 2026-05-05 10:41 | 49.57316 | -54.78473 | 16713 ft | 396 kts | 344° |
| 2026-05-05 10:42 | 49.62493 | -54.79711 | 17620 ft | 402 kts | 345° |
| 2026-05-05 10:42 | 49.65269 | -54.80376 | 18035 ft | 406 kts | 345° |
| 2026-05-05 10:42 | 49.68070 | -54.81049 | 18444 ft | 408 kts | 345° |
| 2026-05-05 10:43 | 49.70882 | -54.81724 | 18884 ft | 410 kts | 345° |
| 2026-05-05 10:43 | 49.73710 | -54.82403 | 19304 ft | 412 kts | 345° |
| 2026-05-05 10:43 | 49.76551 | -54.83087 | 19728 ft | 415 kts | 345° |
| 2026-05-05 10:43 | 49.79413 | -54.83777 | 20149 ft | 417 kts | 345° |
| 2026-05-05 10:44 | 49.82290 | -54.84472 | 20563 ft | 420 kts | 345° |
| 2026-05-05 10:44 | 49.85186 | -54.85172 | 20970 ft | 422 kts | 345° |
| 2026-05-05 10:44 | 49.88058 | -54.85868 | 21367 ft | 425 kts | 345° |
| 2026-05-05 10:44 | 49.90987 | -54.86578 | 21756 ft | 427 kts | 345° |
| 2026-05-05 10:45 | 49.93937 | -54.87294 | 22157 ft | 430 kts | 345° |
| 2026-05-05 10:45 | 49.96903 | -54.88014 | 22542 ft | 432 kts | 345° |
| 2026-05-05 10:45 | 49.99887 | -54.88740 | 22912 ft | 435 kts | 345° |
| 2026-05-05 10:45 | 50.02892 | -54.89473 | 23261 ft | 438 kts | 345° |
| 2026-05-05 10:46 | 50.05873 | -54.90200 | 23549 ft | 440 kts | 345° |
| 2026-05-05 10:46 | 50.08912 | -54.90942 | 23827 ft | 443 kts | 345° |
| 2026-05-05 10:46 | 50.11965 | -54.91688 | 24135 ft | 445 kts | 345° |
| 2026-05-05 10:46 | 50.15031 | -54.92438 | 24428 ft | 447 kts | 345° |
| 2026-05-05 10:47 | 50.18115 | -54.93194 | 24708 ft | 449 kts | 345° |
| 2026-05-05 10:47 | 50.21212 | -54.93954 | 24989 ft | 452 kts | 345° |
| 2026-05-05 10:47 | 50.24326 | -54.94720 | 25270 ft | 454 kts | 345° |
| 2026-05-05 10:47 | 50.27451 | -54.95489 | 25542 ft | 456 kts | 345° |
| 2026-05-05 10:48 | 50.30602 | -54.96265 | 25807 ft | 458 kts | 345° |
| 2026-05-05 10:48 | 50.33724 | -54.97035 | 26078 ft | 460 kts | 346° |
| 2026-05-05 10:48 | 50.36896 | -54.97819 | 26343 ft | 462 kts | 346° |
| 2026-05-05 10:48 | 50.40077 | -54.98606 | 26641 ft | 463 kts | 346° |
| 2026-05-05 10:49 | 50.43258 | -54.99392 | 27022 ft | 462 kts | 346° |
| 2026-05-05 10:49 | 50.46432 | -55.00178 | 27424 ft | 461 kts | 346° |
| 2026-05-05 10:49 | 50.49600 | -55.00963 | 27821 ft | 460 kts | 346° |
| 2026-05-05 10:49 | 50.52763 | -55.01749 | 28183 ft | 460 kts | 346° |
| 2026-05-05 10:50 | 50.55921 | -55.02536 | 28551 ft | 460 kts | 346° |
| 2026-05-05 10:50 | 50.59084 | -55.03325 | 28906 ft | 459 kts | 346° |
| 2026-05-05 10:50 | 50.62245 | -55.04115 | 29270 ft | 459 kts | 346° |
| 2026-05-05 10:50 | 50.65389 | -55.04902 | 29619 ft | 458 kts | 346° |
| 2026-05-05 10:51 | 50.67482 | -55.05426 | 29795 ft | 458 kts | 346° |
| 2026-05-05 10:51 | 50.71700 | -55.06485 | 30101 ft | 460 kts | 346° |
| 2026-05-05 10:51 | 50.74819 | -55.07269 | 30334 ft | 460 kts | 347° |
| 2026-05-05 10:51 | 50.77983 | -55.08065 | 30590 ft | 460 kts | 347° |
| 2026-05-05 10:52 | 50.81139 | -55.08859 | 30825 ft | 460 kts | 347° |
| 2026-05-05 10:52 | 50.86431 | -55.10196 | 30851 ft | 464 kts | 347° |
| 2026-05-05 10:53 | 50.92857 | -55.11824 | 30856 ft | 469 kts | 347° |
| 2026-05-05 10:53 | 50.99339 | -55.13469 | 30852 ft | 474 kts | 347° |
| 2026-05-05 10:54 | 51.05880 | -55.15132 | 30836 ft | 477 kts | 347° |
| 2026-05-05 10:54 | 51.12461 | -55.16810 | 30832 ft | 479 kts | 347° |
| 2026-05-05 10:55 | 51.19027 | -55.18489 | 30824 ft | 481 kts | 347° |
| 2026-05-05 10:55 | 51.25634 | -55.20184 | 30810 ft | 481 kts | 347° |
| 2026-05-05 10:56 | 51.32257 | -55.21888 | 30801 ft | 482 kts | 347° |
| 2026-05-05 10:56 | 51.38872 | -55.23595 | 30793 ft | 481 kts | 347° |
| 2026-05-05 10:57 | 51.45476 | -55.25304 | 30793 ft | 480 kts | 347° |
| 2026-05-05 10:57 | 51.52075 | -55.27017 | 30783 ft | 480 kts | 347° |
| 2026-05-05 10:58 | 51.58625 | -55.28723 | 30776 ft | 480 kts | 347° |
| 2026-05-05 10:58 | 51.65228 | -55.30448 | 30772 ft | 480 kts | 347° |
| 2026-05-05 10:59 | 51.71828 | -55.32177 | 30760 ft | 481 kts | 347° |
| 2026-05-05 10:59 | 51.78437 | -55.33913 | 30758 ft | 481 kts | 347° |
| 2026-05-05 11:00 | 51.85047 | -55.35655 | 30748 ft | 481 kts | 347° |
| 2026-05-05 11:00 | 51.91630 | -55.37395 | 30741 ft | 482 kts | 347° |
| 2026-05-05 11:01 | 51.98256 | -55.39152 | 30725 ft | 483 kts | 347° |
| 2026-05-05 11:01 | 52.04890 | -55.40916 | 30711 ft | 483 kts | 347° |
| 2026-05-05 11:02 | 52.11545 | -55.42690 | 30698 ft | 484 kts | 347° |
| 2026-05-05 11:02 | 52.18185 | -55.44466 | 30686 ft | 484 kts | 347° |
| 2026-05-05 11:03 | 52.24838 | -55.46251 | 30681 ft | 485 kts | 347° |
| 2026-05-05 11:03 | 52.31505 | -55.48045 | 30672 ft | 485 kts | 347° |
| 2026-05-05 11:04 | 52.38123 | -55.49831 | 30668 ft | 485 kts | 348° |
| 2026-05-05 11:04 | 52.44796 | -55.51638 | 30666 ft | 486 kts | 348° |
| 2026-05-05 11:05 | 52.51473 | -55.53452 | 30663 ft | 486 kts | 348° |
| 2026-05-05 11:05 | 52.58155 | -55.55272 | 30658 ft | 487 kts | 348° |
| 2026-05-05 11:06 | 52.64845 | -55.57100 | 30655 ft | 487 kts | 348° |
| 2026-05-05 11:06 | 52.71541 | -55.58936 | 30655 ft | 487 kts | 348° |
| 2026-05-05 11:07 | 52.78241 | -55.60777 | 30652 ft | 488 kts | 348° |
| 2026-05-05 11:07 | 52.84882 | -55.62609 | 30651 ft | 488 kts | 348° |
| 2026-05-05 11:08 | 52.91594 | -55.64466 | 30653 ft | 488 kts | 348° |
| 2026-05-05 11:08 | 52.98306 | -55.66330 | 30651 ft | 489 kts | 349° |
| 2026-05-05 11:09 | 53.05022 | -55.68200 | 30652 ft | 489 kts | 349° |
| 2026-05-05 11:09 | 53.11734 | -55.70075 | 30651 ft | 490 kts | 349° |
| 2026-05-05 11:10 | 53.18460 | -55.71959 | 30648 ft | 490 kts | 349° |
| 2026-05-05 11:10 | 53.25187 | -55.73850 | 30651 ft | 490 kts | 349° |
| 2026-05-05 11:11 | 53.31926 | -55.75750 | 30652 ft | 491 kts | 349° |
| 2026-05-05 11:11 | 53.38667 | -55.77658 | 30654 ft | 492 kts | 349° |
| 2026-05-05 11:12 | 53.45417 | -55.79573 | 30649 ft | 492 kts | 349° |
| 2026-05-05 11:12 | 53.52168 | -55.81495 | 30655 ft | 492 kts | 349° |
| 2026-05-05 11:13 | 53.58926 | -55.83426 | 30654 ft | 493 kts | 349° |
| 2026-05-05 11:13 | 53.65693 | -55.85365 | 30656 ft | 493 kts | 349° |
| 2026-05-05 11:14 | 53.72463 | -55.87311 | 30657 ft | 494 kts | 349° |
| 2026-05-05 11:14 | 53.79243 | -55.89267 | 30655 ft | 494 kts | 349° |
| 2026-05-05 11:15 | 53.86030 | -55.91231 | 30656 ft | 494 kts | 349° |
| 2026-05-05 11:15 | 53.92767 | -55.93187 | 30657 ft | 495 kts | 349° |
| 2026-05-05 11:16 | 53.99561 | -55.95166 | 30657 ft | 495 kts | 350° |
| 2026-05-05 11:16 | 54.06354 | -55.97152 | 30658 ft | 496 kts | 350° |
| 2026-05-05 11:17 | 54.13160 | -55.99148 | 30656 ft | 496 kts | 350° |
| 2026-05-05 11:17 | 54.19983 | -56.01155 | 30659 ft | 497 kts | 350° |
| 2026-05-05 11:18 | 54.26805 | -56.03169 | 30647 ft | 498 kts | 350° |
| 2026-05-05 11:18 | 54.33638 | -56.05193 | 30652 ft | 498 kts | 350° |
| 2026-05-05 11:19 | 54.40469 | -56.07223 | 30638 ft | 498 kts | 350° |
| 2026-05-05 11:19 | 54.47309 | -56.09263 | 30632 ft | 499 kts | 350° |
| 2026-05-05 11:20 | 54.54110 | -56.11298 | 30641 ft | 500 kts | 350° |
| 2026-05-05 11:20 | 54.60969 | -56.13358 | 30630 ft | 500 kts | 351° |
| 2026-05-05 11:21 | 54.67830 | -56.15425 | 30635 ft | 500 kts | 351° |
| 2026-05-05 11:21 | 54.74691 | -56.17499 | 30634 ft | 501 kts | 351° |
| 2026-05-05 11:22 | 54.81565 | -56.19584 | 30632 ft | 501 kts | 351° |
| 2026-05-05 11:22 | 54.88440 | -56.21677 | 30638 ft | 502 kts | 351° |
| 2026-05-05 11:23 | 54.95286 | -56.23768 | 30629 ft | 503 kts | 351° |
| 2026-05-05 11:23 | 55.02179 | -56.25881 | 30631 ft | 503 kts | 351° |
| 2026-05-05 11:24 | 55.09073 | -56.28002 | 30632 ft | 503 kts | 351° |
| 2026-05-05 11:24 | 55.15975 | -56.30132 | 30640 ft | 503 kts | 351° |
| 2026-05-05 11:25 | 55.22879 | -56.32271 | 30627 ft | 504 kts | 351° |
| 2026-05-05 11:25 | 55.29789 | -56.34419 | 30633 ft | 504 kts | 351° |
| 2026-05-05 11:26 | 55.36701 | -56.36575 | 30637 ft | 504 kts | 352° |
| 2026-05-05 11:26 | 55.43622 | -56.38742 | 30632 ft | 505 kts | 352° |
| 2026-05-05 11:27 | 55.50539 | -56.40915 | 30636 ft | 505 kts | 352° |
| 2026-05-05 11:27 | 55.57451 | -56.43095 | 30638 ft | 505 kts | 352° |
| 2026-05-05 11:28 | 55.64366 | -56.45283 | 30635 ft | 505 kts | 352° |
| 2026-05-05 11:28 | 55.71299 | -56.47484 | 30641 ft | 506 kts | 352° |
| 2026-05-05 11:29 | 55.78189 | -56.49681 | 30643 ft | 506 kts | 352° |
| 2026-05-05 11:29 | 55.85134 | -56.51902 | 30640 ft | 507 kts | 352° |
| 2026-05-05 11:30 | 55.92080 | -56.54132 | 30646 ft | 507 kts | 352° |
| 2026-05-05 11:30 | 55.99023 | -56.56370 | 30657 ft | 507 kts | 352° |
| 2026-05-05 11:31 | 56.05973 | -56.58617 | 30645 ft | 508 kts | 352° |
| 2026-05-05 11:31 | 56.12886 | -56.60861 | 30648 ft | 508 kts | 353° |
| 2026-05-05 11:32 | 56.19837 | -56.63125 | 30654 ft | 508 kts | 353° |
| 2026-05-05 11:32 | 56.26790 | -56.65398 | 30665 ft | 508 kts | 353° |
| 2026-05-05 11:33 | 56.33754 | -56.67683 | 30656 ft | 508 kts | 353° |
| 2026-05-05 11:33 | 56.40722 | -56.69979 | 30658 ft | 508 kts | 353° |
| 2026-05-05 11:34 | 56.47687 | -56.72282 | 30664 ft | 508 kts | 353° |
| 2026-05-05 11:34 | 56.54604 | -56.74577 | 30673 ft | 508 kts | 353° |
| 2026-05-05 11:35 | 56.61565 | -56.76896 | 30671 ft | 508 kts | 353° |
| 2026-05-05 11:35 | 56.68523 | -56.79223 | 30674 ft | 508 kts | 353° |
| 2026-05-05 11:36 | 56.75482 | -56.81558 | 30673 ft | 508 kts | 353° |
| 2026-05-05 11:36 | 56.82438 | -56.83901 | 30681 ft | 508 kts | 354° |
| 2026-05-05 11:37 | 56.89400 | -56.86255 | 30681 ft | 509 kts | 354° |
| 2026-05-05 11:37 | 56.96366 | -56.88620 | 30683 ft | 509 kts | 354° |
| 2026-05-05 11:38 | 57.03296 | -56.90981 | 30696 ft | 509 kts | 354° |
| 2026-05-05 11:38 | 57.10266 | -56.93365 | 30689 ft | 510 kts | 354° |
| 2026-05-05 11:39 | 57.17243 | -56.95761 | 30701 ft | 510 kts | 354° |
| 2026-05-05 11:39 | 57.23040 | -56.97758 | 30703 ft | 510 kts | 354° |
| 2026-05-05 11:40 | 57.31199 | -57.00580 | 30710 ft | 510 kts | 354° |
| 2026-05-05 11:40 | 57.38131 | -57.02987 | 30708 ft | 510 kts | 354° |
| 2026-05-05 11:41 | 57.45113 | -57.05422 | 30717 ft | 511 kts | 355° |
| 2026-05-05 11:41 | 57.50963 | -57.07469 | 30722 ft | 511 kts | 355° |
| 2026-05-05 11:42 | 57.57914 | -57.09909 | 30724 ft | 511 kts | 355° |
| 2026-05-05 11:42 | 57.64910 | -57.12376 | 30731 ft | 512 kts | 355° |
| 2026-05-05 11:43 | 57.71904 | -57.14851 | 30737 ft | 512 kts | 355° |
| 2026-05-05 11:43 | 57.78909 | -57.17340 | 30742 ft | 512 kts | 355° |
| 2026-05-05 11:44 | 57.85912 | -57.19839 | 30749 ft | 512 kts | 355° |
| 2026-05-05 11:44 | 57.92916 | -57.22347 | 30760 ft | 512 kts | 355° |
| 2026-05-05 11:45 | 57.99928 | -57.24868 | 30759 ft | 513 kts | 355° |
| 2026-05-05 11:45 | 58.06944 | -57.27400 | 30760 ft | 513 kts | 355° |
| 2026-05-05 11:46 | 58.13960 | -57.29944 | 30764 ft | 513 kts | 355° |
| 2026-05-05 11:46 | 58.20968 | -57.32495 | 30772 ft | 513 kts | 356° |
| 2026-05-05 11:47 | 58.27942 | -57.35043 | 30781 ft | 513 kts | 356° |
| 2026-05-05 11:47 | 58.34967 | -57.37619 | 30781 ft | 514 kts | 356° |
| 2026-05-05 11:48 | 58.45506 | -57.41504 | 30790 ft | 515 kts | 356° |
| 2026-05-05 11:48 | 58.52544 | -57.44112 | 30794 ft | 515 kts | 357° |
| 2026-05-05 11:49 | 58.59593 | -57.46736 | 30805 ft | 516 kts | 357° |
| 2026-05-05 11:49 | 58.66650 | -57.49373 | 30805 ft | 517 kts | 358° |
| 2026-05-05 11:50 | 58.73719 | -57.52025 | 30813 ft | 518 kts | 358° |
| 2026-05-05 11:50 | 58.80798 | -57.54692 | 30811 ft | 518 kts | 358° |
| 2026-05-05 11:51 | 58.87881 | -57.57371 | 30822 ft | 519 kts | 358° |
| 2026-05-05 11:51 | 58.94929 | -57.60049 | 30825 ft | 520 kts | 358° |
| 2026-05-05 11:52 | 59.02023 | -57.62755 | 30829 ft | 520 kts | 359° |
| 2026-05-05 11:52 | 59.09118 | -57.65474 | 30828 ft | 520 kts | 359° |
| 2026-05-05 11:53 | 59.16234 | -57.68212 | 30830 ft | 520 kts | 359° |
| 2026-05-05 11:53 | 59.23335 | -57.70954 | 30773 ft | 522 kts | 359° |
| 2026-05-05 11:54 | 59.26856 | -57.72316 | 30640 ft | 521 kts | 359° |
| 2026-05-05 11:54 | 59.30417 | -57.73702 | 30579 ft | 519 kts | 359° |
| 2026-05-05 11:54 | 59.37497 | -57.76465 | 30536 ft | 519 kts | 359° |
| 2026-05-05 11:55 | 59.44574 | -57.79234 | 30530 ft | 518 kts | 359° |
| 2026-05-05 11:55 | 59.51638 | -57.82008 | 30531 ft | 518 kts | 359° |
| 2026-05-05 11:56 | 59.58707 | -57.84797 | 30547 ft | 517 kts | 359° |
| 2026-05-05 11:56 | 59.65767 | -57.87595 | 30549 ft | 518 kts | 359° |
| 2026-05-05 11:57 | 59.72830 | -57.90406 | 30556 ft | 518 kts | 359° |
| 2026-05-05 11:57 | 59.79893 | -57.93231 | 30564 ft | 517 kts | 358° |
| 2026-05-05 11:58 | 59.86948 | -57.96063 | 30566 ft | 517 kts | 358° |
| 2026-05-05 11:58 | 59.94000 | -57.98381 | 30574 ft | 502 kts | 8° |
| 2026-05-05 11:59 | 59.97448 | -57.98242 | 30585 ft | 490 kts | 16° |
| 2026-05-05 11:59 | 60.00742 | -57.97306 | 30584 ft | 479 kts | 23° |
| 2026-05-05 11:59 | 60.03900 | -57.95497 | 30599 ft | 468 kts | 29° |
| 2026-05-05 11:59 | 60.06981 | -57.93409 | 30584 ft | 468 kts | 30° |
| 2026-05-05 12:00 | 60.13140 | -57.89158 | 30592 ft | 469 kts | 30° |
| 2026-05-05 12:00 | 60.19321 | -57.84933 | 30601 ft | 470 kts | 29° |
| 2026-05-05 12:01 | 60.25543 | -57.80723 | 30606 ft | 472 kts | 29° |
| 2026-05-05 12:01 | 60.31776 | -57.76512 | 30610 ft | 473 kts | 29° |
| 2026-05-05 12:02 | 60.37990 | -57.72299 | 30624 ft | 474 kts | 28° |
| 2026-05-05 12:02 | 60.44254 | -57.68033 | 30628 ft | 475 kts | 28° |
| 2026-05-05 12:03 | 60.50526 | -57.63742 | 30634 ft | 476 kts | 28° |
| 2026-05-05 12:03 | 60.56805 | -57.59429 | 30639 ft | 477 kts | 28° |
| 2026-05-05 12:04 | 60.63125 | -57.55068 | 30647 ft | 478 kts | 28° |
| 2026-05-05 12:04 | 60.69447 | -57.50689 | 30654 ft | 479 kts | 28° |
| 2026-05-05 12:05 | 60.75740 | -57.46313 | 30664 ft | 480 kts | 27° |
| 2026-05-05 12:05 | 60.82068 | -57.41893 | 30666 ft | 481 kts | 27° |
| 2026-05-05 12:06 | 60.88397 | -57.37453 | 30674 ft | 481 kts | 27° |
| 2026-05-05 12:06 | 60.94741 | -57.32985 | 30681 ft | 482 kts | 27° |
| 2026-05-05 12:07 | 61.01086 | -57.28497 | 30685 ft | 482 kts | 27° |
| 2026-05-05 12:07 | 61.07439 | -57.23984 | 30692 ft | 483 kts | 27° |
| 2026-05-05 12:08 | 61.13790 | -57.19454 | 30699 ft | 483 kts | 27° |
| 2026-05-05 12:08 | 61.20110 | -57.14926 | 30708 ft | 483 kts | 26° |
| 2026-05-05 12:09 | 61.26467 | -57.10352 | 30714 ft | 484 kts | 26° |
| 2026-05-05 12:09 | 61.32826 | -57.05757 | 30719 ft | 484 kts | 26° |
| 2026-05-05 12:10 | 61.39190 | -57.01139 | 30730 ft | 484 kts | 26° |
| 2026-05-05 12:10 | 61.45557 | -56.96498 | 30735 ft | 485 kts | 26° |
| 2026-05-05 12:11 | 61.51936 | -56.91829 | 30744 ft | 485 kts | 26° |
| 2026-05-05 12:11 | 61.58312 | -56.87140 | 30754 ft | 486 kts | 26° |
| 2026-05-05 12:12 | 61.64694 | -56.82428 | 30758 ft | 486 kts | 25° |
| 2026-05-05 12:12 | 61.71072 | -56.77697 | 30768 ft | 486 kts | 25° |
| 2026-05-05 12:13 | 61.77459 | -56.72940 | 30777 ft | 487 kts | 25° |
| 2026-05-05 12:13 | 61.83808 | -56.68189 | 30788 ft | 487 kts | 25° |
| 2026-05-05 12:14 | 61.90204 | -56.63382 | 30788 ft | 488 kts | 25° |
| 2026-05-05 12:14 | 61.96601 | -56.58553 | 30793 ft | 488 kts | 25° |
| 2026-05-05 12:15 | 62.03001 | -56.53700 | 30805 ft | 489 kts | 25° |
| 2026-05-05 12:15 | 62.09417 | -56.48813 | 30813 ft | 489 kts | 25° |
| 2026-05-05 12:16 | 62.15830 | -56.43907 | 30818 ft | 490 kts | 25° |
| 2026-05-05 12:16 | 62.22246 | -56.38976 | 30829 ft | 490 kts | 25° |
| 2026-05-05 12:17 | 62.28680 | -56.34009 | 30839 ft | 491 kts | 24° |
| 2026-05-05 12:17 | 62.35067 | -56.29055 | 30846 ft | 491 kts | 24° |
| 2026-05-05 12:18 | 62.41498 | -56.24045 | 30855 ft | 492 kts | 24° |
| 2026-05-05 12:18 | 62.47941 | -56.19002 | 30864 ft | 492 kts | 24° |
| 2026-05-05 12:19 | 62.54383 | -56.13936 | 30876 ft | 493 kts | 24° |
| 2026-05-05 12:19 | 62.60841 | -56.08835 | 30878 ft | 493 kts | 24° |
| 2026-05-05 12:20 | 62.67302 | -56.03708 | 30889 ft | 494 kts | 24° |
| 2026-05-05 12:20 | 62.73762 | -55.98558 | 30891 ft | 494 kts | 24° |
| 2026-05-05 12:21 | 62.80217 | -55.93388 | 30901 ft | 494 kts | 24° |
| 2026-05-05 12:21 | 62.86667 | -55.88197 | 30914 ft | 494 kts | 24° |
| 2026-05-05 12:22 | 62.93081 | -55.83011 | 30919 ft | 494 kts | 24° |
| 2026-05-05 12:22 | 62.99545 | -55.77760 | 30920 ft | 494 kts | 24° |
| 2026-05-05 12:23 | 63.06003 | -55.72489 | 30928 ft | 494 kts | 23° |
| 2026-05-05 12:23 | 63.12452 | -55.67200 | 30954 ft | 494 kts | 23° |
| 2026-05-05 12:24 | 63.18872 | -55.61909 | 30933 ft | 495 kts | 23° |
| 2026-05-05 12:24 | 63.24277 | -55.57436 | 30953 ft | 495 kts | 23° |
| 2026-05-05 12:25 | 63.31789 | -55.51191 | 30961 ft | 495 kts | 23° |
| 2026-05-05 12:25 | 63.37186 | -55.46681 | 30967 ft | 495 kts | 23° |
| 2026-05-05 12:26 | 63.44686 | -55.40384 | 30967 ft | 495 kts | 23° |
| 2026-05-05 12:26 | 63.50054 | -55.35855 | 30973 ft | 495 kts | 23° |
| 2026-05-05 12:27 | 63.56506 | -55.30388 | 30975 ft | 496 kts | 22° |
| 2026-05-05 12:27 | 63.62954 | -55.24897 | 30981 ft | 496 kts | 22° |
| 2026-05-05 12:28 | 63.69409 | -55.19374 | 30983 ft | 496 kts | 22° |
| 2026-05-05 12:28 | 63.75852 | -55.13834 | 30994 ft | 496 kts | 22° |
| 2026-05-05 12:29 | 63.82300 | -55.08262 | 30994 ft | 496 kts | 22° |
| 2026-05-05 12:29 | 63.88738 | -55.02672 | 30997 ft | 496 kts | 22° |
| 2026-05-05 12:30 | 63.95175 | -54.97056 | 31001 ft | 495 kts | 22° |
| 2026-05-05 12:30 | 64.01620 | -54.91404 | 31001 ft | 495 kts | 22° |
| 2026-05-05 12:31 | 64.08048 | -54.85739 | 31005 ft | 495 kts | 22° |
| 2026-05-05 12:31 | 64.14468 | -54.80053 | 31010 ft | 495 kts | 22° |
| 2026-05-05 12:32 | 64.20843 | -54.74379 | 31006 ft | 495 kts | 22° |
| 2026-05-05 12:32 | 64.27261 | -54.68637 | 31012 ft | 495 kts | 22° |
| 2026-05-05 12:33 | 64.33678 | -54.62869 | 31014 ft | 494 kts | 22° |
| 2026-05-05 12:33 | 64.40085 | -54.57081 | 31015 ft | 494 kts | 22° |
| 2026-05-05 12:34 | 64.46495 | -54.51260 | 31023 ft | 494 kts | 21° |
| 2026-05-05 12:34 | 64.52896 | -54.45418 | 31021 ft | 494 kts | 21° |
| 2026-05-05 12:35 | 64.59293 | -54.39550 | 31027 ft | 494 kts | 21° |
| 2026-05-05 12:35 | 64.65637 | -54.33702 | 31030 ft | 494 kts | 21° |
| 2026-05-05 12:36 | 64.72034 | -54.27775 | 31033 ft | 494 kts | 21° |
| 2026-05-05 12:36 | 64.78440 | -54.21808 | 31035 ft | 493 kts | 21° |
| 2026-05-05 12:37 | 64.84793 | -54.15861 | 31047 ft | 493 kts | 21° |
| 2026-05-05 12:37 | 64.91174 | -54.09857 | 31032 ft | 493 kts | 21° |
| 2026-05-05 12:38 | 64.97547 | -54.03830 | 31046 ft | 493 kts | 21° |
| 2026-05-05 12:38 | 65.03906 | -53.97786 | 31050 ft | 493 kts | 20° |
| 2026-05-05 12:39 | 65.10227 | -53.91746 | 31048 ft | 493 kts | 20° |
| 2026-05-05 12:39 | 65.16575 | -53.85648 | 31054 ft | 492 kts | 20° |
| 2026-05-05 12:40 | 65.22921 | -53.79521 | 31061 ft | 491 kts | 20° |
| 2026-05-05 12:40 | 65.29249 | -53.73381 | 31057 ft | 490 kts | 20° |
| 2026-05-05 12:41 | 65.35566 | -53.67218 | 31062 ft | 490 kts | 20° |
| 2026-05-05 12:41 | 65.41874 | -53.61032 | 31059 ft | 489 kts | 20° |
| 2026-05-05 12:42 | 65.48174 | -53.54822 | 31067 ft | 489 kts | 20° |
| 2026-05-05 12:42 | 65.54466 | -53.48588 | 31068 ft | 489 kts | 20° |
| 2026-05-05 12:43 | 65.60724 | -53.42355 | 31068 ft | 489 kts | 20° |
| 2026-05-05 12:43 | 65.67011 | -53.36059 | 31074 ft | 489 kts | 20° |
| 2026-05-05 12:44 | 65.73255 | -53.29770 | 31062 ft | 477 kts | 19° |
| 2026-05-05 12:44 | 65.79275 | -53.23675 | 31080 ft | 465 kts | 19° |
| 2026-05-05 12:45 | 65.85236 | -53.17621 | 31088 ft | 462 kts | 19° |
| 2026-05-05 12:45 | 65.90643 | -53.09936 | 31090 ft | 438 kts | 34° |
| 2026-05-05 12:46 | 65.92982 | -53.05422 | 31059 ft | 423 kts | 36° |
| 2026-05-05 12:46 | 65.95246 | -53.00951 | 31076 ft | 408 kts | 36° |
| 2026-05-05 12:46 | 65.97421 | -52.96641 | 31056 ft | 394 kts | 35° |
| 2026-05-05 12:46 | 65.99521 | -52.92495 | 31083 ft | 383 kts | 35° |
| 2026-05-05 12:47 | 66.03715 | -52.84296 | 31120 ft | 394 kts | 34° |
| 2026-05-05 12:47 | 66.08091 | -52.75767 | 31110 ft | 406 kts | 34° |
| 2026-05-05 12:48 | 66.12516 | -52.67097 | 31109 ft | 406 kts | 34° |
| 2026-05-05 12:48 | 66.16934 | -52.58398 | 31113 ft | 406 kts | 34° |
| 2026-05-05 12:49 | 66.21336 | -52.49693 | 31113 ft | 403 kts | 34° |
| 2026-05-05 12:49 | 66.25700 | -52.41024 | 31115 ft | 400 kts | 34° |
| 2026-05-05 12:50 | 66.30030 | -52.32386 | 31122 ft | 398 kts | 34° |
| 2026-05-05 12:50 | 66.34339 | -52.23751 | 31125 ft | 397 kts | 34° |
| 2026-05-05 12:51 | 66.38627 | -52.15121 | 31135 ft | 396 kts | 34° |
| 2026-05-05 12:51 | 66.42881 | -52.06519 | 31136 ft | 396 kts | 34° |
| 2026-05-05 12:52 | 66.47163 | -51.97821 | 31141 ft | 397 kts | 34° |
| 2026-05-05 12:52 | 66.51453 | -51.89067 | 31137 ft | 398 kts | 34° |
| 2026-05-05 12:53 | 66.55746 | -51.80264 | 31150 ft | 399 kts | 34° |
| 2026-05-05 12:53 | 66.60060 | -51.71377 | 31082 ft | 398 kts | 34° |
| 2026-05-05 12:54 | 66.64364 | -51.62480 | 29301 ft | 407 kts | 35° |
| 2026-05-05 12:54 | 66.66634 | -51.58015 | 27715 ft | 420 kts | 26° |
| 2026-05-05 12:54 | 66.69326 | -51.55237 | 26479 ft | 418 kts | 8° |
| 2026-05-05 12:55 | 66.72066 | -51.53030 | 25518 ft | 425 kts | 25° |
| 2026-05-05 12:55 | 66.74396 | -51.48353 | 24667 ft | 432 kts | 47° |
| 2026-05-05 12:55 | 66.76163 | -51.42250 | 24035 ft | 428 kts | 52° |
| 2026-05-05 12:55 | 66.77928 | -51.36245 | 23297 ft | 421 kts | 48° |
| 2026-05-05 12:56 | 66.79852 | -51.30772 | 22489 ft | 414 kts | 43° |
| 2026-05-05 12:56 | 66.81925 | -51.25732 | 21762 ft | 408 kts | 39° |
| 2026-05-05 12:56 | 66.84049 | -51.21041 | 21062 ft | 401 kts | 37° |
| 2026-05-05 12:56 | 66.86182 | -51.16528 | 20360 ft | 396 kts | 37° |
| 2026-05-05 12:57 | 66.88293 | -51.12103 | 19826 ft | 387 kts | 37° |
| 2026-05-05 12:57 | 66.90319 | -51.07831 | 19527 ft | 373 kts | 37° |
| 2026-05-05 12:57 | 66.92278 | -51.03672 | 19297 ft | 357 kts | 37° |
| 2026-05-05 12:57 | 66.94134 | -50.99703 | 19183 ft | 339 kts | 37° |
| 2026-05-05 12:58 | 66.95896 | -50.95920 | 19056 ft | 323 kts | 37° |
| 2026-05-05 12:58 | 66.97630 | -50.92571 | 18726 ft | 312 kts | 23° |
| 2026-05-05 12:58 | 66.99649 | -50.91002 | 18202 ft | 301 kts | 360° |
| 2026-05-05 12:58 | 67.01692 | -50.91483 | 17628 ft | 292 kts | 340° |
| 2026-05-05 12:59 | 67.03537 | -50.93517 | 17095 ft | 285 kts | 324° |
| 2026-05-05 12:59 | 67.04979 | -50.96795 | 16572 ft | 279 kts | 304° |
| 2026-05-05 12:59 | 67.05818 | -51.01269 | 16049 ft | 275 kts | 282° |
| 2026-05-05 13:00 | 67.05812 | -51.10877 | 15069 ft | 272 kts | 253° |
| 2026-05-05 13:00 | 67.05033 | -51.15283 | 14599 ft | 271 kts | 243° |
| 2026-05-05 13:01 | 67.02285 | -51.27805 | 13211 ft | 266 kts | 242° |
| 2026-05-05 13:01 | 67.01158 | -51.31552 | 12678 ft | 268 kts | 221° |
| 2026-05-05 13:01 | 66.99583 | -51.34060 | 12202 ft | 269 kts | 204° |
| 2026-05-05 13:01 | 66.97766 | -51.35258 | 11726 ft | 271 kts | 186° |
| 2026-05-05 13:02 | 66.95888 | -51.34950 | 11272 ft | 272 kts | 167° |
| 2026-05-05 13:02 | 66.94152 | -51.33062 | 10830 ft | 273 kts | 147° |
| 2026-05-05 13:02 | 66.92745 | -51.29717 | 10145 ft | 283 kts | 126° |
| 2026-05-05 13:02 | 66.91887 | -51.25201 | 9545 ft | 286 kts | 104° |
| 2026-05-05 13:03 | 66.91688 | -51.20196 | 9062 ft | 283 kts | 86° |
| 2026-05-05 13:03 | 66.92087 | -51.15335 | 8603 ft | 280 kts | 66° |
| 2026-05-05 13:03 | 66.92962 | -51.11002 | 8171 ft | 278 kts | 60° |
| 2026-05-05 13:03 | 66.93864 | -51.06656 | 7724 ft | 276 kts | 64° |
| 2026-05-05 13:04 | 66.94715 | -51.02222 | 7312 ft | 273 kts | 64° |
| 2026-05-05 13:04 | 66.95533 | -50.97941 | 6887 ft | 270 kts | 64° |
| 2026-05-05 13:04 | 66.96412 | -50.93729 | 6443 ft | 268 kts | 61° |
| 2026-05-05 13:04 | 66.97641 | -50.90185 | 5935 ft | 268 kts | 33° |
| 2026-05-05 13:05 | 66.99367 | -50.88556 | 5495 ft | 267 kts | 5° |
| 2026-05-05 13:05 | 67.01179 | -50.89210 | 5075 ft | 266 kts | 336° |
| 2026-05-05 13:05 | 67.02649 | -50.91983 | 4648 ft | 264 kts | 307° |
| 2026-05-05 13:05 | 67.03422 | -50.96183 | 4175 ft | 262 kts | 278° |
| 2026-05-05 13:06 | 67.03305 | -51.00765 | 3695 ft | 258 kts | 249° |
| 2026-05-05 13:06 | 67.02598 | -51.04983 | 3269 ft | 258 kts | 243° |
| 2026-05-05 13:06 | 67.01818 | -51.09096 | 2886 ft | 257 kts | 242° |
| 2026-05-05 13:06 | 67.00778 | -51.12670 | 2860 ft | 247 kts | 216° |
| 2026-05-05 13:07 | 66.99231 | -51.14398 | 2856 ft | 245 kts | 185° |
| 2026-05-05 13:07 | 66.97553 | -51.13852 | 2877 ft | 245 kts | 154° |
| 2026-05-05 13:07 | 66.96184 | -51.11292 | 2916 ft | 246 kts | 134° |
| 2026-05-05 13:07 | 66.94973 | -51.08237 | 2891 ft | 240 kts | 134° |
| 2026-05-05 13:08 | 66.93930 | -51.05147 | 2800 ft | 227 kts | 116° |
| 2026-05-05 13:08 | 66.93705 | -51.01368 | 2634 ft | 214 kts | 75° |
| 2026-05-05 13:08 | 66.94494 | -50.98380 | 2479 ft | 202 kts | 38° |
| 2026-05-05 13:08 | 66.95593 | -50.96235 | 2192 ft | 196 kts | 45° |
| 2026-05-05 13:09 | 66.96409 | -50.93609 | 1924 ft | 183 kts | 56° |
| 2026-05-05 13:09 | 66.97055 | -50.90960 | 1676 ft | 167 kts | 61° |
| 2026-05-05 13:09 | 66.97578 | -50.88501 | 1428 ft | 150 kts | 61° |
| 2026-05-05 13:09 | 66.98046 | -50.86268 | 1261 ft | 139 kts | 61° |
| 2026-05-05 13:10 | 66.98510 | -50.84060 | 1043 ft | 141 kts | 60° |
| 2026-05-05 13:10 | 66.98976 | -50.81827 | 848 ft | 144 kts | 62° |
| 2026-05-05 13:10 | 66.99446 | -50.79557 | 658 ft | 144 kts | 62° |
| 2026-05-05 13:10 | 66.99757 | -50.78078 | 492 ft | 142 kts | 62° |
| 2026-05-05 13:11 | 67.00383 | -50.75100 | 198 ft | 145 kts | 62° |
| 2026-05-05 13:11 | 67.00851 | -50.72916 | 123 ft | 130 kts | 61° |
| 2026-05-05 13:11 | 67.01111 | -50.71666 | 141 ft | 105 kts | 63° |
| 2026-05-05 13:11 | 67.01399 | -50.70312 | 153 ft | 68 kts | 62° |
| 2026-05-05 13:12 | 67.01560 | -50.69560 | 163 ft | 38 kts | 62° |
| 2026-05-05 13:12 | 67.01638 | -50.69124 | 167 ft | 14 kts | 99° |
| 2026-05-05 13:12 | 67.01560 | -50.69029 | 168 ft | 13 kts | 195° |
| 2026-05-05 13:12 | 67.01477 | -50.69112 | 166 ft | 13 kts | 227° |
| 2026-05-05 13:13 | 67.01404 | -50.69241 | 164 ft | 13 kts | 199° |
| 2026-05-05 13:13 | 67.01331 | -50.69363 | 162 ft | 13 kts | 221° |
| 2026-05-05 13:13 | 67.01267 | -50.69510 | 160 ft | 12 kts | 221° |
| 2026-05-05 13:13 | 67.01217 | -50.69681 | 157 ft | 12 kts | 242° |
| 2026-05-05 13:14 | 67.01178 | -50.69868 | 155 ft | 12 kts | 242° |
| 2026-05-05 13:14 | 67.01137 | -50.70058 | 153 ft | 12 kts | 242° |
| 2026-05-05 13:14 | 67.01095 | -50.70257 | 151 ft | 13 kts | 242° |
| 2026-05-05 13:14 | 67.01051 | -50.70465 | 149 ft | 14 kts | 242° |
| 2026-05-05 13:15 | 67.01006 | -50.70681 | 146 ft | 14 kts | 241° |
| 2026-05-05 13:15 | 67.00926 | -50.70822 | 144 ft | 13 kts | 189° |
| 2026-05-05 13:15 | 67.00883 | -50.70784 | 144 ft | 0 kts | 150° |